sensor_id;sensor_type;location;lat;lon;timestamp;temperature;humidity
12164;DHT22;6145;50.192;10.064;2023-04-24T00:01:02;13.20;84.90
12164;DHT22;6145;50.192;10.064;2023-04-24T00:03:29;13.20;85.20
12164;DHT22;6145;50.192;10.064;2023-04-24T00:05:55;14.30;86.60
12164;DHT22;6145;50.192;10.064;2023-04-24T00:08:22;13.20;85.40
12164;DHT22;6145;50.192;10.064;2023-04-24T00:10:49;13.20;85.40
12164;DHT22;6145;50.192;10.064;2023-04-24T00:13:17;13.20;85.70
12164;DHT22;6145;50.192;10.064;2023-04-24T00:15:45;13.20;85.70
12164;DHT22;6145;50.192;10.064;2023-04-24T00:18:12;13.30;85.80
12164;DHT22;6145;50.192;10.064;2023-04-24T00:20:39;13.10;85.60
12164;DHT22;6145;50.192;10.064;2023-04-24T00:23:06;13.10;85.80
12164;DHT22;6145;50.192;10.064;2023-04-24T00:25:33;13.10;85.80
12164;DHT22;6145;50.192;10.064;2023-04-24T00:28:00;13.10;86.10
12164;DHT22;6145;50.192;10.064;2023-04-24T00:30:26;13.20;86.60
12164;DHT22;6145;50.192;10.064;2023-04-24T00:32:54;13.00;86.50
12164;DHT22;6145;50.192;10.064;2023-04-24T00:35:21;12.90;86.60
12164;DHT22;6145;50.192;10.064;2023-04-24T00:37:48;12.90;87.00
12164;DHT22;6145;50.192;10.064;2023-04-24T00:40:15;12.90;87.30
12164;DHT22;6145;50.192;10.064;2023-04-24T00:42:43;12.80;87.50
12164;DHT22;6145;50.192;10.064;2023-04-24T00:45:10;14.10;88.90
12164;DHT22;6145;50.192;10.064;2023-04-24T00:47:37;13.60;88.60
12164;DHT22;6145;50.192;10.064;2023-04-24T00:50:07;13.30;88.10
12164;DHT22;6145;50.192;10.064;2023-04-24T00:52:34;12.80;87.80
12164;DHT22;6145;50.192;10.064;2023-04-24T00:55:01;13.00;87.90
12164;DHT22;6145;50.192;10.064;2023-04-24T00:57:28;13.00;87.60
12164;DHT22;6145;50.192;10.064;2023-04-24T00:59:55;12.90;87.40
12164;DHT22;6145;50.192;10.064;2023-04-24T01:02:22;12.80;87.50
12164;DHT22;6145;50.192;10.064;2023-04-24T01:04:50;12.80;87.40
12164;DHT22;6145;50.192;10.064;2023-04-24T01:07:19;12.80;87.80
12164;DHT22;6145;50.192;10.064;2023-04-24T01:09:48;12.70;87.90
12164;DHT22;6145;50.192;10.064;2023-04-24T01:12:16;12.70;87.90
12164;DHT22;6145;50.192;10.064;2023-04-24T01:14:43;12.70;87.80
12164;DHT22;6145;50.192;10.064;2023-04-24T01:17:10;13.50;88.60
12164;DHT22;6145;50.192;10.064;2023-04-24T01:19:38;12.70;88.20
12164;DHT22;6145;50.192;10.064;2023-04-24T01:22:10;12.60;88.10
12164;DHT22;6145;50.192;10.064;2023-04-24T01:24:37;12.60;88.20
12164;DHT22;6145;50.192;10.064;2023-04-24T01:27:04;12.50;88.00
12164;DHT22;6145;50.192;10.064;2023-04-24T01:29:31;12.40;88.10
12164;DHT22;6145;50.192;10.064;2023-04-24T01:31:58;12.40;88.40
12164;DHT22;6145;50.192;10.064;2023-04-24T01:34:25;12.40;88.70
12164;DHT22;6145;50.192;10.064;2023-04-24T01:36:52;12.40;88.80
12164;DHT22;6145;50.192;10.064;2023-04-24T01:39:20;12.40;89.00
12164;DHT22;6145;50.192;10.064;2023-04-24T01:41:48;12.30;89.00
12164;DHT22;6145;50.192;10.064;2023-04-24T01:44:16;12.30;89.00
12164;DHT22;6145;50.192;10.064;2023-04-24T01:46:42;12.20;89.20
12164;DHT22;6145;50.192;10.064;2023-04-24T01:49:09;12.20;89.50
12164;DHT22;6145;50.192;10.064;2023-04-24T01:51:37;12.30;89.80
12164;DHT22;6145;50.192;10.064;2023-04-24T01:54:04;12.90;90.20
12164;DHT22;6145;50.192;10.064;2023-04-24T01:56:33;12.10;90.00
12164;DHT22;6145;50.192;10.064;2023-04-24T01:59:01;12.10;90.00
12164;DHT22;6145;50.192;10.064;2023-04-24T02:01:34;12.10;90.00
12164;DHT22;6145;50.192;10.064;2023-04-24T02:04:02;12.10;90.00
12164;DHT22;6145;50.192;10.064;2023-04-24T02:06:29;12.10;90.00
12164;DHT22;6145;50.192;10.064;2023-04-24T02:08:56;12.10;90.10
12164;DHT22;6145;50.192;10.064;2023-04-24T02:11:23;12.10;90.00
12164;DHT22;6145;50.192;10.064;2023-04-24T02:13:51;12.10;90.00
12164;DHT22;6145;50.192;10.064;2023-04-24T02:16:18;12.30;90.00
12164;DHT22;6145;50.192;10.064;2023-04-24T02:18:45;12.10;89.90
12164;DHT22;6145;50.192;10.064;2023-04-24T02:21:12;12.10;89.70
12164;DHT22;6145;50.192;10.064;2023-04-24T02:23:39;12.10;89.70
12164;DHT22;6145;50.192;10.064;2023-04-24T02:26:06;12.10;89.90
12164;DHT22;6145;50.192;10.064;2023-04-24T02:28:33;12.10;90.00
12164;DHT22;6145;50.192;10.064;2023-04-24T02:31:01;12.00;89.90
12164;DHT22;6145;50.192;10.064;2023-04-24T02:33:27;12.10;89.80
12164;DHT22;6145;50.192;10.064;2023-04-24T02:35:54;13.00;90.30
12164;DHT22;6145;50.192;10.064;2023-04-24T02:38:22;12.10;89.60
12164;DHT22;6145;50.192;10.064;2023-04-24T02:40:48;12.10;90.00
12164;DHT22;6145;50.192;10.064;2023-04-24T02:43:15;12.10;89.90
12164;DHT22;6145;50.192;10.064;2023-04-24T02:45:42;12.90;90.20
12164;DHT22;6145;50.192;10.064;2023-04-24T02:48:10;12.10;89.80
12164;DHT22;6145;50.192;10.064;2023-04-24T02:50:37;12.20;89.60
12164;DHT22;6145;50.192;10.064;2023-04-24T02:53:03;12.20;89.20
12164;DHT22;6145;50.192;10.064;2023-04-24T02:55:30;12.10;89.00
12164;DHT22;6145;50.192;10.064;2023-04-24T02:57:57;12.20;88.90
12164;DHT22;6145;50.192;10.064;2023-04-24T03:00:23;12.10;88.70
12164;DHT22;6145;50.192;10.064;2023-04-24T03:02:52;12.10;88.80
12164;DHT22;6145;50.192;10.064;2023-04-24T03:05:20;12.00;88.60
12164;DHT22;6145;50.192;10.064;2023-04-24T03:07:47;12.00;88.80
12164;DHT22;6145;50.192;10.064;2023-04-24T03:10:14;12.10;89.00
12164;DHT22;6145;50.192;10.064;2023-04-24T03:12:41;12.00;89.00
12164;DHT22;6145;50.192;10.064;2023-04-24T03:15:08;12.00;89.10
12164;DHT22;6145;50.192;10.064;2023-04-24T03:17:35;12.00;89.10
12164;DHT22;6145;50.192;10.064;2023-04-24T03:20:02;12.00;89.20
12164;DHT22;6145;50.192;10.064;2023-04-24T03:22:32;12.00;89.20
12164;DHT22;6145;50.192;10.064;2023-04-24T03:24:59;12.50;89.70
12164;DHT22;6145;50.192;10.064;2023-04-24T03:27:26;12.20;89.50
12164;DHT22;6145;50.192;10.064;2023-04-24T03:29:52;11.90;89.10
12164;DHT22;6145;50.192;10.064;2023-04-24T03:32:20;11.90;89.00
12164;DHT22;6145;50.192;10.064;2023-04-24T03:34:47;12.70;89.80
12164;DHT22;6145;50.192;10.064;2023-04-24T03:37:14;11.90;88.80
12164;DHT22;6145;50.192;10.064;2023-04-24T03:39:42;13.10;90.00
12164;DHT22;6145;50.192;10.064;2023-04-24T03:42:09;11.90;88.90
12164;DHT22;6145;50.192;10.064;2023-04-24T03:44:36;11.90;89.00
12164;DHT22;6145;50.192;10.064;2023-04-24T03:47:03;11.80;88.80
12164;DHT22;6145;50.192;10.064;2023-04-24T03:49:30;11.80;88.70
12164;DHT22;6145;50.192;10.064;2023-04-24T03:51:57;12.00;88.80
12164;DHT22;6145;50.192;10.064;2023-04-24T03:54:23;11.80;88.60
12164;DHT22;6145;50.192;10.064;2023-04-24T03:56:52;11.80;88.80
12164;DHT22;6145;50.192;10.064;2023-04-24T03:59:18;11.80;88.90
12164;DHT22;6145;50.192;10.064;2023-04-24T04:01:45;11.70;88.80
12164;DHT22;6145;50.192;10.064;2023-04-24T04:04:12;11.70;88.80
12164;DHT22;6145;50.192;10.064;2023-04-24T04:06:39;11.70;89.00
12164;DHT22;6145;50.192;10.064;2023-04-24T04:09:06;11.70;89.20
12164;DHT22;6145;50.192;10.064;2023-04-24T04:11:34;11.60;89.30
12164;DHT22;6145;50.192;10.064;2023-04-24T04:14:02;11.60;89.30
12164;DHT22;6145;50.192;10.064;2023-04-24T04:16:29;11.60;89.40
12164;DHT22;6145;50.192;10.064;2023-04-24T04:18:56;11.60;89.50
12164;DHT22;6145;50.192;10.064;2023-04-24T04:21:23;11.50;89.60
12164;DHT22;6145;50.192;10.064;2023-04-24T04:23:50;11.50;89.80
12164;DHT22;6145;50.192;10.064;2023-04-24T04:26:16;11.50;90.00
12164;DHT22;6145;50.192;10.064;2023-04-24T04:28:44;11.50;90.00
12164;DHT22;6145;50.192;10.064;2023-04-24T04:31:14;11.60;90.10
12164;DHT22;6145;50.192;10.064;2023-04-24T04:33:41;11.70;90.00
12164;DHT22;6145;50.192;10.064;2023-04-24T04:36:08;11.70;90.00
12164;DHT22;6145;50.192;10.064;2023-04-24T04:38:34;11.70;89.80
12164;DHT22;6145;50.192;10.064;2023-04-24T04:41:02;12.60;90.20
12164;DHT22;6145;50.192;10.064;2023-04-24T04:43:29;11.80;89.50
12164;DHT22;6145;50.192;10.064;2023-04-24T04:45:57;11.80;89.40
12164;DHT22;6145;50.192;10.064;2023-04-24T04:48:27;11.80;89.10
12164;DHT22;6145;50.192;10.064;2023-04-24T04:50:54;12.30;89.70
12164;DHT22;6145;50.192;10.064;2023-04-24T04:53:21;11.80;89.70
12164;DHT22;6145;50.192;10.064;2023-04-24T04:55:48;11.60;89.80
12164;DHT22;6145;50.192;10.064;2023-04-24T04:58:14;11.60;89.40
12164;DHT22;6145;50.192;10.064;2023-04-24T05:00:41;11.50;89.90
12164;DHT22;6145;50.192;10.064;2023-04-24T05:03:08;11.60;90.00
12164;DHT22;6145;50.192;10.064;2023-04-24T05:05:36;12.40;90.60
12164;DHT22;6145;50.192;10.064;2023-04-24T05:08:06;11.70;90.00
12164;DHT22;6145;50.192;10.064;2023-04-24T05:10:33;11.70;90.00
12164;DHT22;6145;50.192;10.064;2023-04-24T05:13:02;11.70;90.00
12164;DHT22;6145;50.192;10.064;2023-04-24T05:15:29;11.70;90.10
12164;DHT22;6145;50.192;10.064;2023-04-24T05:17:56;11.70;90.00
12164;DHT22;6145;50.192;10.064;2023-04-24T05:20:23;11.70;90.10
12164;DHT22;6145;50.192;10.064;2023-04-24T05:22:51;11.70;90.10
12164;DHT22;6145;50.192;10.064;2023-04-24T05:25:18;11.80;90.10
12164;DHT22;6145;50.192;10.064;2023-04-24T05:27:45;11.70;90.10
12164;DHT22;6145;50.192;10.064;2023-04-24T05:30:12;11.80;90.10
12164;DHT22;6145;50.192;10.064;2023-04-24T05:32:39;11.70;90.40
12164;DHT22;6145;50.192;10.064;2023-04-24T05:35:06;11.70;90.10
12164;DHT22;6145;50.192;10.064;2023-04-24T05:37:33;11.70;90.10
12164;DHT22;6145;50.192;10.064;2023-04-24T05:40:02;11.70;90.10
12164;DHT22;6145;50.192;10.064;2023-04-24T05:42:30;11.70;90.10
12164;DHT22;6145;50.192;10.064;2023-04-24T05:44:57;13.20;90.80
12164;DHT22;6145;50.192;10.064;2023-04-24T05:47:24;12.60;90.40
12164;DHT22;6145;50.192;10.064;2023-04-24T05:49:51;11.80;90.00
12164;DHT22;6145;50.192;10.064;2023-04-24T05:52:18;11.80;90.00
12164;DHT22;6145;50.192;10.064;2023-04-24T05:54:45;13.40;90.50
12164;DHT22;6145;50.192;10.064;2023-04-24T05:57:13;11.80;89.30
12164;DHT22;6145;50.192;10.064;2023-04-24T05:59:40;11.80;89.00
12164;DHT22;6145;50.192;10.064;2023-04-24T06:02:07;11.80;88.60
12164;DHT22;6145;50.192;10.064;2023-04-24T06:04:34;11.90;88.70
12164;DHT22;6145;50.192;10.064;2023-04-24T06:07:01;12.00;88.60
12164;DHT22;6145;50.192;10.064;2023-04-24T06:09:28;11.90;88.80
12164;DHT22;6145;50.192;10.064;2023-04-24T06:11:55;12.00;88.10
12164;DHT22;6145;50.192;10.064;2023-04-24T06:14:23;12.00;86.30
12164;DHT22;6145;50.192;10.064;2023-04-24T06:16:50;12.00;85.70
12164;DHT22;6145;50.192;10.064;2023-04-24T06:19:16;13.20;86.60
12164;DHT22;6145;50.192;10.064;2023-04-24T06:21:46;13.00;85.90
12164;DHT22;6145;50.192;10.064;2023-04-24T06:24:14;12.10;84.40
12164;DHT22;6145;50.192;10.064;2023-04-24T06:26:41;12.10;84.50
12164;DHT22;6145;50.192;10.064;2023-04-24T06:29:08;12.00;84.40
12164;DHT22;6145;50.192;10.064;2023-04-24T06:31:36;12.00;84.60
12164;DHT22;6145;50.192;10.064;2023-04-24T06:34:03;12.10;85.60
12164;DHT22;6145;50.192;10.064;2023-04-24T06:36:30;12.10;84.50
12164;DHT22;6145;50.192;10.064;2023-04-24T06:38:57;12.30;87.20
12164;DHT22;6145;50.192;10.064;2023-04-24T06:41:24;12.50;88.30
12164;DHT22;6145;50.192;10.064;2023-04-24T06:43:51;12.90;90.70
12164;DHT22;6145;50.192;10.064;2023-04-24T06:46:18;13.30;89.00
12164;DHT22;6145;50.192;10.064;2023-04-24T06:48:49;13.70;88.50
12164;DHT22;6145;50.192;10.064;2023-04-24T06:51:16;13.90;86.20
12164;DHT22;6145;50.192;10.064;2023-04-24T06:53:44;14.20;85.80
12164;DHT22;6145;50.192;10.064;2023-04-24T06:56:10;14.50;82.90
12164;DHT22;6145;50.192;10.064;2023-04-24T06:58:37;14.60;80.90
12164;DHT22;6145;50.192;10.064;2023-04-24T07:01:04;14.80;81.60
12164;DHT22;6145;50.192;10.064;2023-04-24T07:03:37;14.90;77.70
12164;DHT22;6145;50.192;10.064;2023-04-24T07:06:06;14.90;75.40
12164;DHT22;6145;50.192;10.064;2023-04-24T07:08:33;14.80;72.40
12164;DHT22;6145;50.192;10.064;2023-04-24T07:11:01;14.60;72.70
12164;DHT22;6145;50.192;10.064;2023-04-24T07:13:28;14.40;72.60
12164;DHT22;6145;50.192;10.064;2023-04-24T07:15:54;14.40;72.90
12164;DHT22;6145;50.192;10.064;2023-04-24T07:18:21;14.40;73.30
12164;DHT22;6145;50.192;10.064;2023-04-24T07:20:48;14.20;73.20
12164;DHT22;6145;50.192;10.064;2023-04-24T07:23:17;14.20;72.60
12164;DHT22;6145;50.192;10.064;2023-04-24T07:25:44;14.30;71.50
12164;DHT22;6145;50.192;10.064;2023-04-24T07:28:11;14.30;70.90
12164;DHT22;6145;50.192;10.064;2023-04-24T07:30:44;14.40;71.50
12164;DHT22;6145;50.192;10.064;2023-04-24T07:33:16;14.70;71.70
12164;DHT22;6145;50.192;10.064;2023-04-24T07:35:43;14.80;69.10
12164;DHT22;6145;50.192;10.064;2023-04-24T07:38:09;14.80;68.90
12164;DHT22;6145;50.192;10.064;2023-04-24T07:40:38;14.90;66.20
12164;DHT22;6145;50.192;10.064;2023-04-24T07:43:04;14.80;65.90
12164;DHT22;6145;50.192;10.064;2023-04-24T07:45:31;14.90;66.20
12164;DHT22;6145;50.192;10.064;2023-04-24T07:48:01;14.70;65.60
12164;DHT22;6145;50.192;10.064;2023-04-24T07:50:28;14.70;65.20
12164;DHT22;6145;50.192;10.064;2023-04-24T07:52:54;14.70;64.60
12164;DHT22;6145;50.192;10.064;2023-04-24T07:55:21;14.70;65.10
12164;DHT22;6145;50.192;10.064;2023-04-24T07:57:49;14.70;64.40
12164;DHT22;6145;50.192;10.064;2023-04-24T08:00:16;14.60;64.70
12164;DHT22;6145;50.192;10.064;2023-04-24T08:02:43;14.60;64.30
12164;DHT22;6145;50.192;10.064;2023-04-24T08:05:10;14.80;64.60
12164;DHT22;6145;50.192;10.064;2023-04-24T08:07:38;14.60;64.10
12164;DHT22;6145;50.192;10.064;2023-04-24T08:10:06;14.60;63.30
12164;DHT22;6145;50.192;10.064;2023-04-24T08:12:33;14.50;62.80
12164;DHT22;6145;50.192;10.064;2023-04-24T08:15:01;14.40;62.30
12164;DHT22;6145;50.192;10.064;2023-04-24T08:17:28;14.30;62.30
12164;DHT22;6145;50.192;10.064;2023-04-24T08:19:55;14.20;62.00
12164;DHT22;6145;50.192;10.064;2023-04-24T08:22:26;14.10;63.20
12164;DHT22;6145;50.192;10.064;2023-04-24T08:24:54;14.20;65.10
12164;DHT22;6145;50.192;10.064;2023-04-24T08:27:21;14.20;63.90
12164;DHT22;6145;50.192;10.064;2023-04-24T08:29:48;14.30;64.30
12164;DHT22;6145;50.192;10.064;2023-04-24T08:32:17;14.60;64.10
12164;DHT22;6145;50.192;10.064;2023-04-24T08:34:44;14.50;63.90
12164;DHT22;6145;50.192;10.064;2023-04-24T08:37:11;14.60;63.30
12164;DHT22;6145;50.192;10.064;2023-04-24T08:39:37;14.80;63.00
12164;DHT22;6145;50.192;10.064;2023-04-24T08:42:06;14.90;61.00
12164;DHT22;6145;50.192;10.064;2023-04-24T08:44:33;14.80;60.10
12164;DHT22;6145;50.192;10.064;2023-04-24T08:47:01;15.30;60.90
12164;DHT22;6145;50.192;10.064;2023-04-24T08:49:30;15.30;59.90
12164;DHT22;6145;50.192;10.064;2023-04-24T08:51:57;15.00;59.70
12164;DHT22;6145;50.192;10.064;2023-04-24T08:54:25;15.00;60.10
12164;DHT22;6145;50.192;10.064;2023-04-24T08:56:53;15.00;59.70
12164;DHT22;6145;50.192;10.064;2023-04-24T08:59:22;15.00;59.80
12164;DHT22;6145;50.192;10.064;2023-04-24T09:01:50;15.00;59.90
12164;DHT22;6145;50.192;10.064;2023-04-24T09:04:17;15.00;59.40
12164;DHT22;6145;50.192;10.064;2023-04-24T09:06:49;15.00;59.10
12164;DHT22;6145;50.192;10.064;2023-04-24T09:09:16;15.00;59.10
12164;DHT22;6145;50.192;10.064;2023-04-24T09:11:44;15.10;59.80
12164;DHT22;6145;50.192;10.064;2023-04-24T09:14:11;15.10;60.00
12164;DHT22;6145;50.192;10.064;2023-04-24T09:16:38;15.10;59.70
12164;DHT22;6145;50.192;10.064;2023-04-24T09:19:05;15.30;60.00
12164;DHT22;6145;50.192;10.064;2023-04-24T09:21:32;15.40;59.70
12164;DHT22;6145;50.192;10.064;2023-04-24T09:24:02;15.40;59.30
12164;DHT22;6145;50.192;10.064;2023-04-24T09:26:30;15.30;58.50
12164;DHT22;6145;50.192;10.064;2023-04-24T09:28:59;15.30;58.40
12164;DHT22;6145;50.192;10.064;2023-04-24T09:31:27;15.30;58.20
12164;DHT22;6145;50.192;10.064;2023-04-24T09:33:56;15.40;58.10
12164;DHT22;6145;50.192;10.064;2023-04-24T09:36:30;15.20;58.10
12164;DHT22;6145;50.192;10.064;2023-04-24T09:38:59;15.10;58.10
12164;DHT22;6145;50.192;10.064;2023-04-24T09:41:27;15.10;58.10
12164;DHT22;6145;50.192;10.064;2023-04-24T09:43:55;15.10;58.40
12164;DHT22;6145;50.192;10.064;2023-04-24T09:46:29;15.40;59.20
12164;DHT22;6145;50.192;10.064;2023-04-24T09:49:08;15.00;59.10
12164;DHT22;6145;50.192;10.064;2023-04-24T09:51:36;15.20;58.50
12164;DHT22;6145;50.192;10.064;2023-04-24T09:54:04;15.10;58.40
12164;DHT22;6145;50.192;10.064;2023-04-24T09:56:34;15.20;58.20
12164;DHT22;6145;50.192;10.064;2023-04-24T09:59:06;15.10;58.40
12164;DHT22;6145;50.192;10.064;2023-04-24T10:01:33;15.30;58.50
12164;DHT22;6145;50.192;10.064;2023-04-24T10:04:06;15.00;58.20
12164;DHT22;6145;50.192;10.064;2023-04-24T10:06:34;14.90;58.40
12164;DHT22;6145;50.192;10.064;2023-04-24T10:09:01;15.00;58.20
12164;DHT22;6145;50.192;10.064;2023-04-24T10:11:29;14.90;58.00
12164;DHT22;6145;50.192;10.064;2023-04-24T10:13:58;14.90;58.10
12164;DHT22;6145;50.192;10.064;2023-04-24T10:16:25;14.80;58.20
12164;DHT22;6145;50.192;10.064;2023-04-24T10:18:54;14.80;58.10
12164;DHT22;6145;50.192;10.064;2023-04-24T10:21:21;14.80;58.70
12164;DHT22;6145;50.192;10.064;2023-04-24T10:23:49;14.70;58.50
12164;DHT22;6145;50.192;10.064;2023-04-24T10:26:16;14.70;58.70
12164;DHT22;6145;50.192;10.064;2023-04-24T10:28:45;14.70;58.30
12164;DHT22;6145;50.192;10.064;2023-04-24T10:31:14;14.60;58.10
12164;DHT22;6145;50.192;10.064;2023-04-24T10:33:43;14.40;58.60
12164;DHT22;6145;50.192;10.064;2023-04-24T10:36:10;14.40;58.60
12164;DHT22;6145;50.192;10.064;2023-04-24T10:38:40;14.30;58.80
12164;DHT22;6145;50.192;10.064;2023-04-24T10:41:09;14.30;58.70
12164;DHT22;6145;50.192;10.064;2023-04-24T10:43:41;14.30;59.40
12164;DHT22;6145;50.192;10.064;2023-04-24T10:46:09;14.20;59.40
12164;DHT22;6145;50.192;10.064;2023-04-24T10:48:44;14.20;59.60
12164;DHT22;6145;50.192;10.064;2023-04-24T10:51:19;14.20;59.80
12164;DHT22;6145;50.192;10.064;2023-04-24T10:53:49;14.10;59.50
12164;DHT22;6145;50.192;10.064;2023-04-24T10:56:16;14.00;59.70
12164;DHT22;6145;50.192;10.064;2023-04-24T10:58:45;14.00;59.80
12164;DHT22;6145;50.192;10.064;2023-04-24T11:01:25;14.10;60.10
12164;DHT22;6145;50.192;10.064;2023-04-24T11:03:56;13.90;59.90
12164;DHT22;6145;50.192;10.064;2023-04-24T11:06:30;13.80;59.80
12164;DHT22;6145;50.192;10.064;2023-04-24T11:09:02;13.90;60.70
12164;DHT22;6145;50.192;10.064;2023-04-24T11:11:31;13.80;60.90
12164;DHT22;6145;50.192;10.064;2023-04-24T11:14:02;13.70;60.80
12164;DHT22;6145;50.192;10.064;2023-04-24T11:16:51;13.70;60.90
12164;DHT22;6145;50.192;10.064;2023-04-24T11:19:24;13.80;61.00
12164;DHT22;6145;50.192;10.064;2023-04-24T11:21:56;13.80;61.90
12164;DHT22;6145;50.192;10.064;2023-04-24T11:24:31;13.70;61.10
12164;DHT22;6145;50.192;10.064;2023-04-24T11:27:00;14.00;61.50
12164;DHT22;6145;50.192;10.064;2023-04-24T11:29:45;13.70;61.60
12164;DHT22;6145;50.192;10.064;2023-04-24T11:32:23;13.80;61.70
12164;DHT22;6145;50.192;10.064;2023-04-24T11:34:53;13.80;61.50
12164;DHT22;6145;50.192;10.064;2023-04-24T11:37:22;13.90;61.70
12164;DHT22;6145;50.192;10.064;2023-04-24T11:39:51;14.00;62.00
12164;DHT22;6145;50.192;10.064;2023-04-24T11:42:18;14.00;61.90
12164;DHT22;6145;50.192;10.064;2023-04-24T11:44:46;14.90;62.60
12164;DHT22;6145;50.192;10.064;2023-04-24T11:47:14;14.10;61.70
12164;DHT22;6145;50.192;10.064;2023-04-24T11:49:41;14.20;61.80
12164;DHT22;6145;50.192;10.064;2023-04-24T11:52:09;14.30;62.20
12164;DHT22;6145;50.192;10.064;2023-04-24T11:54:47;14.50;61.70
12164;DHT22;6145;50.192;10.064;2023-04-24T11:57:14;14.60;60.90
12164;DHT22;6145;50.192;10.064;2023-04-24T11:59:41;14.60;60.00
12164;DHT22;6145;50.192;10.064;2023-04-24T12:02:08;16.20;61.10
12164;DHT22;6145;50.192;10.064;2023-04-24T12:04:39;14.70;59.30
12164;DHT22;6145;50.192;10.064;2023-04-24T12:07:08;14.90;59.40
12164;DHT22;6145;50.192;10.064;2023-04-24T12:09:42;14.60;59.20
12164;DHT22;6145;50.192;10.064;2023-04-24T12:12:10;14.60;58.90
12164;DHT22;6145;50.192;10.064;2023-04-24T12:14:56;14.50;59.30
12164;DHT22;6145;50.192;10.064;2023-04-24T12:17:25;14.50;59.50
12164;DHT22;6145;50.192;10.064;2023-04-24T12:19:52;14.50;59.80
12164;DHT22;6145;50.192;10.064;2023-04-24T12:22:24;14.30;60.40
12164;DHT22;6145;50.192;10.064;2023-04-24T12:25:02;14.30;61.60
12164;DHT22;6145;50.192;10.064;2023-04-24T12:27:31;14.20;61.90
12164;DHT22;6145;50.192;10.064;2023-04-24T12:29:59;14.20;62.40
12164;DHT22;6145;50.192;10.064;2023-04-24T12:32:27;14.20;62.90
12164;DHT22;6145;50.192;10.064;2023-04-24T12:34:54;14.20;63.00
12164;DHT22;6145;50.192;10.064;2023-04-24T12:37:23;14.30;63.00
12164;DHT22;6145;50.192;10.064;2023-04-24T12:40:03;14.30;62.90
12164;DHT22;6145;50.192;10.064;2023-04-24T12:42:31;14.30;63.00
12164;DHT22;6145;50.192;10.064;2023-04-24T12:45:02;14.30;62.10
12164;DHT22;6145;50.192;10.064;2023-04-24T12:47:31;14.30;62.80
12164;DHT22;6145;50.192;10.064;2023-04-24T12:49:58;14.30;62.90
12164;DHT22;6145;50.192;10.064;2023-04-24T12:52:26;14.40;62.70
12164;DHT22;6145;50.192;10.064;2023-04-24T12:54:54;14.40;63.30
12164;DHT22;6145;50.192;10.064;2023-04-24T12:57:35;14.40;63.00
12164;DHT22;6145;50.192;10.064;2023-04-24T13:00:04;14.50;62.70
12164;DHT22;6145;50.192;10.064;2023-04-24T13:02:31;14.60;62.60
12164;DHT22;6145;50.192;10.064;2023-04-24T13:04:58;14.60;62.10
12164;DHT22;6145;50.192;10.064;2023-04-24T13:07:26;14.60;61.20
12164;DHT22;6145;50.192;10.064;2023-04-24T13:09:54;14.70;62.00
12164;DHT22;6145;50.192;10.064;2023-04-24T13:12:21;14.70;61.70
12164;DHT22;6145;50.192;10.064;2023-04-24T13:14:50;14.80;61.80
12164;DHT22;6145;50.192;10.064;2023-04-24T13:17:17;14.80;62.00
12164;DHT22;6145;50.192;10.064;2023-04-24T13:19:54;14.80;61.80
12164;DHT22;6145;50.192;10.064;2023-04-24T13:22:21;14.90;62.00
12164;DHT22;6145;50.192;10.064;2023-04-24T13:24:47;14.80;62.10
12164;DHT22;6145;50.192;10.064;2023-04-24T13:27:16;14.80;62.40
12164;DHT22;6145;50.192;10.064;2023-04-24T13:29:54;14.90;62.50
12164;DHT22;6145;50.192;10.064;2023-04-24T13:32:36;14.90;62.60
12164;DHT22;6145;50.192;10.064;2023-04-24T13:35:04;14.90;62.50
12164;DHT22;6145;50.192;10.064;2023-04-24T13:37:41;14.90;62.50
12164;DHT22;6145;50.192;10.064;2023-04-24T13:40:11;15.00;62.00
12164;DHT22;6145;50.192;10.064;2023-04-24T13:42:40;15.00;61.50
12164;DHT22;6145;50.192;10.064;2023-04-24T13:45:10;14.90;60.80
12164;DHT22;6145;50.192;10.064;2023-04-24T13:47:39;14.90;60.90
12164;DHT22;6145;50.192;10.064;2023-04-24T13:50:07;14.90;61.00
12164;DHT22;6145;50.192;10.064;2023-04-24T13:52:34;14.70;60.90
12164;DHT22;6145;50.192;10.064;2023-04-24T13:55:01;14.60;61.00
12164;DHT22;6145;50.192;10.064;2023-04-24T13:57:28;15.40;62.00
12164;DHT22;6145;50.192;10.064;2023-04-24T13:59:56;14.50;61.20
12164;DHT22;6145;50.192;10.064;2023-04-24T14:02:27;14.40;61.50
12164;DHT22;6145;50.192;10.064;2023-04-24T14:04:54;14.30;61.50
12164;DHT22;6145;50.192;10.064;2023-04-24T14:07:21;14.20;62.80
12164;DHT22;6145;50.192;10.064;2023-04-24T14:09:48;14.20;65.00
12164;DHT22;6145;50.192;10.064;2023-04-24T14:12:15;14.10;66.00
12164;DHT22;6145;50.192;10.064;2023-04-24T14:14:45;14.20;67.60
12164;DHT22;6145;50.192;10.064;2023-04-24T14:17:12;15.50;69.70
12164;DHT22;6145;50.192;10.064;2023-04-24T14:19:41;14.70;70.00
12164;DHT22;6145;50.192;10.064;2023-04-24T14:22:09;14.10;69.20
12164;DHT22;6145;50.192;10.064;2023-04-24T14:24:36;14.10;69.80
12164;DHT22;6145;50.192;10.064;2023-04-24T14:27:03;14.10;69.60
12164;DHT22;6145;50.192;10.064;2023-04-24T14:29:30;14.20;69.30
12164;DHT22;6145;50.192;10.064;2023-04-24T14:31:56;14.30;69.70
12164;DHT22;6145;50.192;10.064;2023-04-24T14:34:23;14.10;69.40
12164;DHT22;6145;50.192;10.064;2023-04-24T14:36:52;14.20;69.60
12164;DHT22;6145;50.192;10.064;2023-04-24T14:39:19;14.30;69.30
12164;DHT22;6145;50.192;10.064;2023-04-24T14:41:46;14.30;69.10
12164;DHT22;6145;50.192;10.064;2023-04-24T14:44:13;14.10;69.20
12164;DHT22;6145;50.192;10.064;2023-04-24T14:46:41;14.10;69.00
12164;DHT22;6145;50.192;10.064;2023-04-24T14:49:08;14.00;69.00
12164;DHT22;6145;50.192;10.064;2023-04-24T14:51:42;13.90;69.60
12164;DHT22;6145;50.192;10.064;2023-04-24T14:54:10;13.70;70.30
12164;DHT22;6145;50.192;10.064;2023-04-24T14:56:39;14.90;71.50
12164;DHT22;6145;50.192;10.064;2023-04-24T14:59:06;13.60;71.00
12164;DHT22;6145;50.192;10.064;2023-04-24T15:01:33;13.40;70.80
12164;DHT22;6145;50.192;10.064;2023-04-24T15:04:28;13.30;71.10
12164;DHT22;6145;50.192;10.064;2023-04-24T15:06:56;13.30;71.30
12164;DHT22;6145;50.192;10.064;2023-04-24T15:09:27;13.30;71.50
12164;DHT22;6145;50.192;10.064;2023-04-24T15:11:57;13.30;71.60
12164;DHT22;6145;50.192;10.064;2023-04-24T15:14:24;13.20;71.10
12164;DHT22;6145;50.192;10.064;2023-04-24T15:16:51;13.20;71.30
12164;DHT22;6145;50.192;10.064;2023-04-24T15:19:33;13.10;71.80
12164;DHT22;6145;50.192;10.064;2023-04-24T15:22:00;13.20;72.10
12164;DHT22;6145;50.192;10.064;2023-04-24T15:24:28;13.20;72.40
12164;DHT22;6145;50.192;10.064;2023-04-24T15:26:55;15.00;74.60
12164;DHT22;6145;50.192;10.064;2023-04-24T15:29:22;13.40;73.10
12164;DHT22;6145;50.192;10.064;2023-04-24T15:31:50;13.40;72.60
12164;DHT22;6145;50.192;10.064;2023-04-24T15:34:17;13.40;72.10
12164;DHT22;6145;50.192;10.064;2023-04-24T15:36:43;13.10;71.80